METAR stanice u blizini

 

LYBE - Beograd / Surčin, Srbija
Ažurirano: 21/04/2024 19:30
Slaba kiša, Pretežno oblačno
Slaba kiša, Pretežno oblačno
 Pravac vetra JZ
Vetar: JZ 17 km/h
Temperatura: 9°C
Osećaj hladnoće: 7°C
Tačka rose: 6°C
Vlažnost: 82%
Pritisak: 1012 hPa
Pregled: Light Rain
Oblaci: Mostly Cloudy
Vidljivost: 10 km
Cloud details: Mostly Cloudy 1402 m
2024/04/21 17:30 LYBE 211730Z 23009KT 9999 -RA BKN046 09/06 Q1012 NOSIG
LYBT - Beograd / Batajnica, Srbija
Ažurirano: 21/04/2024 19:30
Mostly Cloudy
Mostly Cloudy
 Pravac vetra JZ
Vetar: JZ 11 km/h
Temperatura: 10°C
Osećaj hladnoće: 8°C
Tačka rose: 6°C
Vlažnost: 76%
Pritisak: 1012 hPa
Oblaci: Mostly Cloudy
Vidljivost: 10 km
Cloud details: Mostly Cloudy 1463 m
2024/04/21 17:30 LYBT 211730Z 23006KT 9999 BKN048 10/06 Q1012 NOSIG
LYVR - Vršac, Srbija
Ažurirano: 21/04/2024 19:30
Vedro
Vedro
 Pravac vetra J
Vetar: J 15 km/h
Temperatura: 9°C
Osećaj hladnoće: 7°C
Tačka rose: 9°C
Vlažnost: 100%
Pritisak: 1011 hPa
Pregled: Vedro
Vidljivost: greater than 10 km
2024/04/21 17:30 LYVR 211730Z AUTO 18008KT CAVOK 09/09 Q1011
 
LYKV - Lađevci, Srbija
Ažurirano: 21/04/2024 19:30
Slaba kiša, Pretežno oblačno
Slaba kiša, Pretežno oblačno
 Pravac vetra varies
Vetar: varies 2 km/h
Temperatura: 7°C
Tačka rose: 6°C
Vlažnost: 93%
Pritisak: 1013 hPa
Pregled: Light Rain
Oblaci: Mostly Cloudy
Vidljivost: 10 km
Cloud details: Mostly Cloudy 305 m
Mostly Cloudy 914 m
2024/04/21 17:30 LYKV 211730Z VRB01KT 9999 -RA BKN010 BKN030 07/06 Q1013 NOSIG
LYNI - Niš, Srbija
Ažurirano: 21/04/2024 19:30
Slaba kiša, Pretežno oblačno
Slaba kiša, Pretežno oblačno
 Pravac vetra JJZ
Vetar: JJZ 4 km/h
Temperatura: 7°C
Tačka rose: 7°C
Vlažnost: 100%
Pritisak: 1013 hPa
Pregled: Light Rain
Oblaci: Mostly Cloudy
Vidljivost: 8 km
Cloud details: Mostly Cloudy 396 m
Mostly Cloudy 823 m
2024/04/21 17:30 LYNI 211730Z 20002KT 8000 -RA BKN013 BKN027 07/07 Q1013 RERA BECMG SCT013 BKN027
BKPR - Priština, Srbija
Ažurirano: 21/04/2024 19:30
Mostly Cloudy
Mostly Cloudy
 Pravac vetra SZ
Vetar: SZ 7 km/h
Temperatura: 5°C
Osećaj hladnoće: 3°C
Tačka rose: 4°C
Vlažnost: 93%
Pritisak: 1012 hPa
Oblaci: Mostly Cloudy
Vidljivost: 10 km
Cloud details: Few Clouds 457 m
Mostly Cloudy 914 m
2024/04/21 17:30 BKPR 211730Z 31004KT 9999 FEW015 BKN030 05/04 Q1012 NOSIG
 
LHPP - Pecs / Pogany, Hungary
Ažurirano: 21/04/2024 19:15
Vedro
Vedro
 Pravac vetra SZ
Vetar: SZ 17 km/h
Temperatura: 8°C
Osećaj hladnoće: 5°C
Tačka rose: 1°C
Vlažnost: 62%
Pritisak: 1013 hPa
Pregled: Vedro
Vidljivost: greater than 10 km
2024/04/21 17:15 LHPP 211715Z AUTO 32009KT CAVOK 08/01 Q1013
LHUD - Szeged, Hungary
Ažurirano: 04/07/2019 01:45
NOT Current
Vedro
Vedro
 Pravac vetra S
Vetar: S 7 km/h
Temperatura: 18°C
Tačka rose: 13°C
Vlažnost: 73%
Pritisak: 1019 hPa
Pregled: Vedro
Vidljivost: greater than 10 km
2019/07/03 23:45 LHUD 032345Z 35004KT CAVOK 18/13 Q1019
LRTR - Timisoara, Romania
Ažurirano: 21/04/2024 19:30
Vedro
Vedro
 Pravac vetra ZSZ
Vetar: ZSZ 11 km/h
Temperatura: 12°C
Tačka rose: 4°C
Vlažnost: 58%
Pritisak: 1010 hPa
Pregled: Vedro
Vidljivost: greater than 10 km
2024/04/21 17:30 LRTR 211730Z 30006KT CAVOK 12/04 Q1010
 
LRCV - Craiova, Romania
Ažurirano: 21/04/2024 19:30
Vedro
Vedro
 Pravac vetra SZ
Vetar: SZ 13 km/h
Temperatura: 10°C
Osećaj hladnoće: 8°C
Tačka rose: 7°C
Vlažnost: 82%
Pritisak: 1009 hPa
Pregled: Vedro
Vidljivost: greater than 10 km
2024/04/21 17:30 LRCV 211730Z 31007KT CAVOK 10/07 Q1009
LBSF - Sofia, Bulgaria
Ažurirano: 21/04/2024 19:30
Padavine, Oblačno
Padavine, Oblačno
 Pravac vetra ZSZ
Vetar: ZSZ 17 km/h
Temperatura: 6°C
Osećaj hladnoće: 3°C
Tačka rose: 5°C
Vlažnost: 93%
Pritisak: 1009 hPa
Pregled: Padavine
Oblaci: Oblačno
Vidljivost: 8 km
Cloud details: Few Clouds 488 m
Partly Cloudy 884 m
Oblačno 1006 m
2024/04/21 17:30 LBSF 211730Z AUTO 29009KT 8000 RA FEW016/// SCT029/// OVC033/// 06/05 Q1009 TEMPO 3000 RA
LWSK - Skoplje, Makedonija
Ažurirano: 21/04/2024 19:50
Mostly Cloudy
Mostly Cloudy
 Pravac vetra varies
Vetar: varies 4 km/h
Temperatura: 9°C
Tačka rose: 6°C
Vlažnost: 82%
Pritisak: 1012 hPa
Oblaci: Mostly Cloudy
Vidljivost: 10 km
Cloud details: Few Clouds 610 m
Mostly Cloudy 1219 m
Mostly Cloudy 2438 m
2024/04/21 17:50 LWSK 211750Z VRB02KT 9999 FEW020 BKN040 BKN080 09/06 Q1012 NOSIG
 
LYPG - Podgorica, Crna Gora
Ažurirano: 21/04/2024 19:30
Partly Cloudy
Partly Cloudy
 Pravac vetra calm
Vetar: Tišina
Temperatura: 10°C
Tačka rose: 7°C
Vlažnost: 82%
Pritisak: 1012 hPa
Oblaci: Partly Cloudy
Vidljivost: 10 km
Cloud details: Few Clouds 457 m
Partly Cloudy 1219 m
2024/04/21 17:30 LYPG 211730Z 00000KT 9999 FEW015 SCT040 10/07 Q1012 NOSIG
LQSA - Sarajevo, Bosna i Hercegovina
Ažurirano: 21/04/2024 19:30
Mostly Cloudy
Mostly Cloudy
 Pravac vetra SSZ
Vetar: SSZ 6 km/h
Temperatura: 6°C
Tačka rose: 3°C
Vlažnost: 81%
Pritisak: 1013 hPa
Oblaci: Mostly Cloudy
Vidljivost: 10 km
Cloud details: Mostly Cloudy 1067 m
2024/04/21 17:30 LQSA 211730Z 33003KT 280V020 9999 BKN035 06/03 Q1013 NOSIG
LDOS - Osijek, Hrvatksa
Ažurirano: 21/04/2024 19:30
Vedro
Vedro
 Pravac vetra ZSZ
Vetar: ZSZ 22 km/h
Temperatura: 11°C
Tačka rose: 1°C
Vlažnost: 50%
Pritisak: 1013 hPa
Pregled: Vedro
Vidljivost: greater than 10 km
2024/04/21 17:30 LDOS 211730Z 30012KT CAVOK 11/01 Q1013